createdAt,value
2018-12-13T00:01:44.641Z,10.53
2018-12-13T00:04:13.352Z,8.93
2018-12-13T00:06:42.142Z,12.43
2018-12-13T00:09:10.885Z,10.10
2018-12-13T00:11:39.591Z,8.18
2018-12-13T00:14:08.444Z,12.50
2018-12-13T00:16:37.132Z,6.67
2018-12-13T00:19:05.844Z,7.35
2018-12-13T00:21:34.639Z,8.08
2018-12-13T00:24:03.462Z,10.32
2018-12-13T00:26:32.141Z,8.65
2018-12-13T00:29:00.934Z,9.98
2018-12-13T00:31:29.699Z,9.00
2018-12-13T00:33:58.478Z,10.53
2018-12-13T00:36:27.197Z,9.60
2018-12-13T00:38:55.919Z,8.68
2018-12-13T00:41:24.921Z,6.78
2018-12-13T00:43:53.646Z,10.88
2018-12-13T00:46:22.512Z,10.15
2018-12-13T00:48:51.283Z,8.78
2018-12-13T00:51:20.002Z,7.53
2018-12-13T00:53:48.823Z,8.43
2018-12-13T00:56:17.496Z,9.48
2018-12-13T00:58:46.207Z,8.95
2018-12-13T01:01:15.138Z,8.63
2018-12-13T01:03:43.853Z,8.68
2018-12-13T01:06:12.639Z,8.30
2018-12-13T01:08:41.519Z,9.15
2018-12-13T01:11:10.329Z,6.75
2018-12-13T01:13:39.002Z,12.58
2018-12-13T01:16:09.931Z,6.47
2018-12-13T01:18:38.735Z,11.30
2018-12-13T01:21:07.425Z,9.85
2018-12-13T01:23:36.259Z,16.73
2018-12-13T01:26:04.996Z,8.53
2018-12-13T01:28:33.759Z,7.60
2018-12-13T01:31:02.470Z,10.98
2018-12-13T01:33:31.183Z,8.63
2018-12-13T01:35:59.972Z,12.45
2018-12-13T01:38:28.858Z,8.85
2018-12-13T01:40:57.657Z,10.18
2018-12-13T01:43:26.432Z,8.38
2018-12-13T01:45:55.151Z,10.70
2018-12-13T01:48:23.927Z,9.50
2018-12-13T01:50:52.711Z,8.15
2018-12-13T01:53:21.486Z,14.43
2018-12-13T01:55:50.266Z,9.28
2018-12-13T01:58:19.084Z,14.40
2018-12-13T02:00:47.842Z,11.03
2018-12-13T02:03:16.517Z,10.05
2018-12-13T02:05:45.483Z,11.08
2018-12-13T02:08:14.168Z,9.38
2018-12-13T02:10:43.003Z,12.63
2018-12-13T02:13:11.951Z,10.68
2018-12-13T02:15:40.687Z,7.45
2018-12-13T02:18:09.380Z,11.78
2018-12-13T02:20:38.245Z,11.70
2018-12-13T02:23:07.023Z,16.62
2018-12-13T02:25:35.720Z,14.20
2018-12-13T02:28:04.441Z,11.60
2018-12-13T02:30:33.150Z,16.62
2018-12-13T02:33:01.866Z,13.62
2018-12-13T02:35:30.538Z,16.48
2018-12-13T02:37:59.216Z,10.68
2018-12-13T02:40:27.977Z,12.13
2018-12-13T02:42:56.752Z,11.83
2018-12-13T02:45:25.459Z,14.85
2018-12-13T02:47:54.187Z,13.20
2018-12-13T02:50:22.916Z,13.10
2018-12-13T02:52:51.790Z,13.50
2018-12-13T02:55:21.215Z,11.22
2018-12-13T02:57:49.984Z,13.58
2018-12-13T03:00:18.703Z,10.82
2018-12-13T03:02:47.504Z,15.58
2018-12-13T03:05:16.962Z,14.20
2018-12-13T03:07:45.849Z,10.68
2018-12-13T03:10:14.550Z,15.60
2018-12-13T03:12:43.502Z,11.40
2018-12-13T03:15:12.241Z,10.30
2018-12-13T03:17:41.016Z,18.50
2018-12-13T03:20:09.743Z,12.58
2018-12-13T03:22:38.432Z,13.10
2018-12-13T03:25:07.210Z,15.40
2018-12-13T03:27:35.931Z,11.08
2018-12-13T03:30:05.426Z,17.60
2018-12-13T03:32:34.204Z,15.03
2018-12-13T03:35:02.927Z,16.52
2018-12-13T03:37:31.611Z,20.43
2018-12-13T03:40:00.351Z,12.60
2018-12-13T03:42:29.349Z,13.50
2018-12-13T03:44:58.028Z,20.85
2018-12-13T03:47:26.818Z,21.77
2018-12-13T03:49:55.789Z,15.68
2018-12-13T03:52:24.536Z,17.30
2018-12-13T03:54:53.383Z,17.98
2018-12-13T03:57:22.081Z,17.77
2018-12-13T03:59:50.890Z,16.00
2018-12-13T04:02:19.697Z,18.60
2018-12-13T04:04:48.451Z,19.30
2018-12-13T04:07:17.204Z,16.67
2018-12-13T04:09:46.033Z,18.42
2018-12-13T04:12:14.745Z,20.52
2018-12-13T04:14:43.763Z,19.32
2018-12-13T04:17:12.783Z,19.27
2018-12-13T04:19:41.487Z,17.12
2018-12-13T04:22:10.177Z,17.45
2018-12-13T04:24:38.944Z,18.05
2018-12-13T04:27:07.732Z,13.55
2018-12-13T04:29:36.519Z,20.25
2018-12-13T04:32:05.210Z,18.32
2018-12-13T04:34:33.933Z,21.00
2018-12-13T04:37:02.738Z,15.72
2018-12-13T04:39:31.449Z,17.30
2018-12-13T04:42:00.184Z,14.55
2018-12-13T04:44:28.849Z,17.00
2018-12-13T04:46:57.602Z,20.10
2018-12-13T04:49:26.282Z,17.52
2018-12-13T04:51:55.004Z,22.17
2018-12-13T04:54:23.748Z,21.20
2018-12-13T04:56:52.411Z,13.22
2018-12-13T04:59:21.158Z,20.57
2018-12-13T05:01:50.012Z,19.67
2018-12-13T05:04:18.758Z,20.32
2018-12-13T05:06:47.968Z,23.32
2018-12-13T05:09:16.863Z,20.60
2018-12-13T05:11:45.543Z,15.72
2018-12-13T05:14:14.350Z,16.67
2018-12-13T05:16:43.214Z,19.67
2018-12-13T05:19:11.914Z,16.55
2018-12-13T05:21:40.771Z,17.12
2018-12-13T05:24:09.585Z,16.82
2018-12-13T05:26:38.476Z,22.87
2018-12-13T05:29:07.308Z,18.90
2018-12-13T05:31:36.131Z,18.57
2018-12-13T05:34:05.087Z,21.40
2018-12-13T05:36:33.759Z,22.17
2018-12-13T05:39:02.586Z,27.70
2018-12-13T05:41:31.292Z,18.40
2018-12-13T05:43:59.989Z,18.57
2018-12-13T05:46:28.742Z,17.75
2018-12-13T05:48:57.695Z,29.27
2018-12-13T05:51:26.455Z,16.65
2018-12-13T05:53:55.180Z,18.40
2018-12-13T05:56:23.936Z,17.98
2018-12-13T05:58:52.752Z,22.95
2018-12-13T06:01:21.579Z,19.05
2018-12-13T06:03:50.259Z,18.95
2018-12-13T06:06:19.019Z,17.07
2018-12-13T06:08:47.862Z,15.13
2018-12-13T06:11:16.699Z,20.82
2018-12-13T06:13:45.601Z,21.25
2018-12-13T06:16:14.903Z,22.45
2018-12-13T06:18:43.706Z,20.88
2018-12-13T06:21:12.433Z,20.77
2018-12-13T06:23:41.523Z,24.40
2018-12-13T06:26:10.264Z,20.85
2018-12-13T06:28:39.272Z,25.08
2018-12-13T06:31:07.985Z,20.37
2018-12-13T06:33:36.686Z,18.25
2018-12-13T06:36:05.505Z,22.82
2018-12-13T06:38:34.347Z,22.00
2018-12-13T06:41:03.048Z,17.95
2018-12-13T06:43:31.754Z,21.70
2018-12-13T06:46:00.686Z,19.20
2018-12-13T06:48:30.136Z,19.75
2018-12-13T06:50:58.831Z,23.40
2018-12-13T06:53:27.640Z,28.52
2018-12-13T06:55:56.365Z,26.37
2018-12-13T06:58:25.101Z,20.80
2018-12-13T07:00:53.794Z,21.93
2018-12-13T07:03:22.560Z,25.90
2018-12-13T07:05:51.344Z,21.80
2018-12-13T07:08:20.107Z,23.05
2018-12-13T07:10:48.824Z,20.32
2018-12-13T07:13:17.717Z,29.87
2018-12-13T07:15:46.416Z,15.88
2018-12-13T07:18:15.213Z,21.87
2018-12-13T07:20:43.943Z,20.48
2018-12-13T07:23:12.831Z,22.62
2018-12-13T07:25:41.562Z,22.45
2018-12-13T07:28:10.260Z,24.07
2018-12-13T07:30:39.156Z,21.85
2018-12-13T07:33:07.875Z,27.70
2018-12-13T07:35:37.189Z,26.30
2018-12-13T07:38:05.913Z,24.82
2018-12-13T07:40:35.451Z,26.27
2018-12-13T07:43:04.239Z,26.17
2018-12-13T07:45:33.069Z,28.38
2018-12-13T07:48:01.817Z,25.30
2018-12-13T07:50:30.593Z,22.13
2018-12-13T07:52:59.303Z,23.40
2018-12-13T07:55:28.054Z,24.05
2018-12-13T07:57:56.862Z,26.73
2018-12-13T08:00:26.052Z,27.93
2018-12-13T08:02:54.776Z,25.20
2018-12-13T08:05:24.184Z,26.80
2018-12-13T08:07:53.302Z,20.60
2018-12-13T08:10:22.029Z,34.85
2018-12-13T08:12:50.743Z,34.27
2018-12-13T08:15:19.691Z,23.55
2018-12-13T08:17:49.279Z,26.70
2018-12-13T08:20:18.277Z,24.20
2018-12-13T08:22:47.291Z,22.65
2018-12-13T08:25:16.216Z,22.55
2018-12-13T08:27:45.256Z,24.02
2018-12-13T08:30:14.280Z,36.83
2018-12-13T08:32:43.159Z,16.85
2018-12-13T08:35:12.169Z,24.75
2018-12-13T08:37:41.231Z,20.92
2018-12-13T08:40:10.347Z,25.27
2018-12-13T08:42:39.557Z,27.13
2018-12-13T08:45:08.624Z,29.23
2018-12-13T08:47:37.724Z,21.23
2018-12-13T08:50:07.341Z,26.42
2018-12-13T08:52:36.424Z,24.85
2018-12-13T08:55:05.824Z,23.35
2018-12-13T08:57:34.851Z,23.90
2018-12-13T09:00:03.973Z,25.12
2018-12-13T09:02:33.075Z,29.75
2018-12-13T09:05:02.215Z,22.25
2018-12-13T09:07:31.432Z,22.35
2018-12-13T09:10:00.460Z,20.25
2018-12-13T09:12:29.561Z,28.15
2018-12-13T09:14:58.791Z,23.85
2018-12-13T09:17:28.210Z,22.65
2018-12-13T09:19:57.626Z,21.97
2018-12-13T09:22:26.603Z,21.68
2018-12-13T09:24:55.824Z,19.77
2018-12-13T09:27:24.745Z,19.23
2018-12-13T09:29:53.727Z,27.87
2018-12-13T09:32:23.028Z,19.23
2018-12-13T09:34:52.176Z,22.40
2018-12-13T09:37:21.293Z,15.90
2018-12-13T09:39:50.496Z,21.50
2018-12-13T09:42:19.506Z,21.57
2018-12-13T09:44:48.431Z,23.30
2018-12-13T09:47:19.125Z,26.73
2018-12-13T09:49:48.146Z,19.90
2018-12-13T09:52:17.247Z,23.83
2018-12-13T09:54:46.386Z,14.23
2018-12-13T09:57:18.155Z,20.08
2018-12-13T09:59:47.155Z,23.92
2018-12-13T10:02:16.083Z,17.87
2018-12-13T10:04:45.682Z,15.32
2018-12-13T10:07:14.855Z,16.87
2018-12-13T10:09:43.920Z,15.45
2018-12-13T10:12:13.445Z,19.65
2018-12-13T10:14:42.520Z,22.15
2018-12-13T10:17:11.673Z,21.37
2018-12-13T10:19:40.834Z,21.17
2018-12-13T10:22:11.867Z,25.13
2018-12-13T10:24:40.887Z,28.92
2018-12-13T10:27:09.890Z,17.62
2018-12-13T10:29:39.034Z,17.37
2018-12-13T10:32:15.511Z,16.60
2018-12-13T10:34:44.424Z,16.07
2018-12-13T10:37:13.759Z,16.23
2018-12-13T10:39:42.874Z,18.57
2018-12-13T10:42:12.807Z,17.17
2018-12-13T10:44:42.708Z,15.00
2018-12-13T10:47:11.784Z,16.90
2018-12-13T10:49:40.988Z,17.20
2018-12-13T10:52:10.663Z,37.42
2018-12-13T10:54:39.730Z,18.93
2018-12-13T10:57:08.964Z,17.90
2018-12-13T10:59:38.009Z,18.53
2018-12-13T11:02:11.118Z,15.53
2018-12-13T11:04:40.130Z,15.13
2018-12-13T11:07:09.251Z,19.30
2018-12-13T11:09:38.328Z,12.37
2018-12-13T11:12:07.248Z,17.07
2018-12-13T11:14:36.495Z,20.88
2018-12-13T11:17:05.538Z,15.68
2018-12-13T11:19:34.358Z,15.30
2018-12-13T11:22:03.377Z,14.93
2018-12-13T11:24:32.254Z,19.27
2018-12-13T11:28:14.623Z,13.30
2018-12-13T11:30:44.043Z,11.80
2018-12-13T11:33:13.334Z,17.00
2018-12-13T11:35:42.411Z,39.45
2018-12-13T11:38:11.296Z,17.50
2018-12-13T11:40:40.327Z,15.57
2018-12-13T11:43:09.383Z,18.37
2018-12-13T11:45:38.316Z,23.10
2018-12-13T11:48:07.368Z,18.97
2018-12-13T11:50:36.656Z,15.97
2018-12-13T11:53:05.565Z,15.10
2018-12-13T11:55:37.563Z,21.90
2018-12-13T11:58:08.503Z,17.17
2018-12-13T12:00:38.231Z,16.73
2018-12-13T12:03:07.791Z,19.10
2018-12-13T12:05:37.333Z,16.73
2018-12-13T12:08:06.902Z,16.70
2018-12-13T12:10:36.415Z,17.13
2018-12-13T12:13:05.892Z,19.77
2018-12-13T12:15:35.669Z,21.70
2018-12-13T12:18:05.332Z,18.40
2018-12-13T12:20:34.791Z,21.43
2018-12-13T12:23:04.258Z,20.57
2018-12-13T12:25:34.031Z,19.23
2018-12-13T12:28:03.430Z,24.13
2018-12-13T12:30:32.979Z,17.53
2018-12-13T12:33:02.785Z,17.73
2018-12-13T12:35:32.434Z,17.40
2018-12-13T12:38:02.147Z,20.60
2018-12-13T12:40:32.122Z,20.10
2018-12-13T12:43:01.370Z,20.50
2018-12-13T12:45:30.570Z,18.53
2018-12-13T12:48:00.267Z,24.45
2018-12-13T12:50:30.356Z,22.30
2018-12-13T12:53:00.064Z,18.92
2018-12-13T12:55:29.966Z,18.80
2018-12-13T12:57:59.783Z,13.83
2018-12-13T13:00:29.771Z,24.00
2018-12-13T13:02:59.548Z,15.77
2018-12-13T13:05:29.267Z,20.73
2018-12-13T13:07:58.967Z,17.48
2018-12-13T13:10:28.642Z,21.35
2018-12-13T13:12:58.375Z,13.60
2018-12-13T13:15:28.256Z,19.80
2018-12-13T13:17:57.887Z,16.77
2018-12-13T13:20:27.674Z,23.32
2018-12-13T13:22:57.716Z,20.08
2018-12-13T13:25:27.662Z,16.75
2018-12-13T13:27:57.343Z,18.35
2018-12-13T13:30:27.094Z,17.70
2018-12-13T13:32:56.639Z,20.32
2018-12-13T13:35:26.697Z,19.65
2018-12-13T13:37:56.470Z,17.35
2018-12-13T13:40:26.225Z,18.15
2018-12-13T13:42:56.002Z,17.87
2018-12-13T13:45:26.131Z,21.87
2018-12-13T13:47:56.110Z,21.10
2018-12-13T13:50:26.722Z,19.02
2018-12-13T13:52:56.627Z,27.20
2018-12-13T13:55:26.416Z,20.52
2018-12-13T13:57:56.044Z,23.62
2018-12-13T14:00:25.806Z,26.70
2018-12-13T14:02:55.331Z,26.10
2018-12-13T14:05:25.256Z,29.57
2018-12-13T14:07:54.870Z,18.57
2018-12-13T14:10:24.814Z,20.43
2018-12-13T14:12:54.267Z,20.02
2018-12-13T14:15:24.291Z,23.22
2018-12-13T14:17:53.807Z,22.75
2018-12-13T14:20:23.856Z,23.85
2018-12-13T14:22:53.851Z,17.95
2018-12-13T14:25:23.748Z,20.02
2018-12-13T14:27:53.579Z,22.82
2018-12-13T14:30:24.022Z,21.00
2018-12-13T14:32:53.922Z,21.15
2018-12-13T14:35:23.723Z,18.98
2018-12-13T14:37:52.716Z,17.42
2018-12-13T14:40:21.797Z,22.50
2018-12-13T14:42:51.019Z,16.67
2018-12-13T14:45:20.148Z,24.20
2018-12-13T14:47:49.312Z,18.67
2018-12-13T14:50:18.386Z,19.82
2018-12-13T14:52:47.639Z,28.67
2018-12-13T14:55:16.787Z,21.60
2018-12-13T14:57:45.900Z,19.70
2018-12-13T15:00:15.168Z,22.10
2018-12-13T15:02:44.255Z,24.82
2018-12-13T15:05:13.833Z,33.28
2018-12-13T15:07:42.970Z,17.90
2018-12-13T15:10:12.175Z,21.35
2018-12-13T15:12:41.244Z,24.63
2018-12-13T15:15:11.120Z,22.25
2018-12-13T15:17:40.316Z,20.23
2018-12-13T15:20:09.486Z,25.75
2018-12-13T15:22:38.655Z,19.55
2018-12-13T15:25:08.191Z,19.60
2018-12-13T15:27:37.332Z,18.80
2018-12-13T15:30:09.664Z,18.05
2018-12-13T15:32:38.907Z,22.37
2018-12-13T15:35:07.845Z,18.35
2018-12-13T15:37:37.067Z,25.52
2018-12-13T15:40:07.273Z,21.75
2018-12-13T15:42:36.688Z,27.30
2018-12-13T15:45:06.856Z,23.87
2018-12-13T15:47:36.056Z,20.57
2018-12-13T15:50:05.545Z,20.92
2018-12-13T15:52:34.371Z,22.85
2018-12-13T15:55:03.778Z,21.50
2018-12-13T15:57:33.236Z,25.08
2018-12-13T16:00:02.301Z,23.25
2018-12-13T16:02:31.323Z,20.27
2018-12-13T16:05:00.343Z,21.35
2018-12-13T16:07:29.404Z,21.95
2018-12-13T16:10:03.877Z,27.52
2018-12-13T16:12:29.525Z,22.10
2018-12-13T16:14:58.960Z,18.37
2018-12-13T16:17:28.319Z,16.40
2018-12-13T16:19:57.392Z,23.73
2018-12-13T16:22:26.240Z,23.77
2018-12-13T16:24:55.247Z,24.32
2018-12-13T16:27:24.327Z,15.20
2018-12-13T16:29:53.379Z,18.73
2018-12-13T16:32:22.416Z,20.20
2018-12-13T16:34:52.488Z,22.42
2018-12-13T16:37:21.531Z,26.37
2018-12-13T16:39:50.593Z,22.82
2018-12-13T16:42:19.619Z,16.42
2018-12-13T16:44:48.747Z,20.65
2018-12-13T16:47:17.921Z,20.90
2018-12-13T16:49:47.030Z,24.50
2018-12-13T16:52:16.009Z,29.25
2018-12-13T16:54:45.016Z,27.87
2018-12-13T16:57:14.101Z,19.12
2018-12-13T16:59:43.215Z,25.23
2018-12-13T17:02:12.194Z,23.55
2018-12-13T17:04:41.421Z,26.43
2018-12-13T17:07:10.514Z,23.20
2018-12-13T17:09:39.466Z,20.70
2018-12-13T17:12:08.813Z,25.43
2018-12-13T17:14:37.717Z,19.65
2018-12-13T17:17:07.781Z,22.47
2018-12-13T17:19:36.861Z,27.40
2018-12-13T17:22:06.000Z,24.43
2018-12-13T17:24:35.105Z,23.70
2018-12-13T17:27:04.086Z,21.68
2018-12-13T17:29:33.077Z,20.32
2018-12-13T17:32:02.607Z,21.95
2018-12-13T17:34:31.809Z,24.30
2018-12-13T17:37:00.981Z,28.35
2018-12-13T17:39:30.281Z,25.30
2018-12-13T17:41:59.479Z,26.23
2018-12-13T17:44:28.393Z,27.85
2018-12-13T17:46:57.353Z,22.48
2018-12-13T17:49:26.619Z,21.77
2018-12-13T17:51:55.953Z,19.25
2018-12-13T17:54:25.243Z,22.55
2018-12-13T17:56:54.258Z,19.67
2018-12-13T17:59:23.362Z,22.40
2018-12-13T18:01:52.359Z,24.12
2018-12-13T18:04:21.453Z,15.55
2018-12-13T18:06:50.409Z,24.52
2018-12-13T18:09:19.545Z,20.83
2018-12-13T18:11:48.538Z,20.45
2018-12-13T18:14:17.559Z,25.95
2018-12-13T18:16:46.924Z,25.57
2018-12-13T18:19:15.836Z,24.07
2018-12-13T18:21:44.951Z,25.50
2018-12-13T18:24:13.945Z,20.93
2018-12-13T18:26:43.048Z,22.32
2018-12-13T18:29:12.067Z,22.27
2018-12-13T18:31:41.226Z,26.65
2018-12-13T18:34:10.195Z,22.25
2018-12-13T18:36:39.395Z,21.80
2018-12-13T18:39:09.024Z,19.30
2018-12-13T18:41:38.097Z,28.00
2018-12-13T18:44:07.364Z,21.93
2018-12-13T18:46:36.834Z,20.40
2018-12-13T18:49:05.886Z,20.70
2018-12-13T18:51:34.785Z,19.65
2018-12-13T18:54:03.791Z,25.45
2018-12-13T18:56:32.853Z,21.57
2018-12-13T18:59:01.891Z,22.67
2018-12-13T19:01:31.117Z,27.07
2018-12-13T19:04:00.128Z,25.20
2018-12-13T19:06:29.510Z,25.52
2018-12-13T19:08:58.680Z,29.32
2018-12-13T19:11:27.589Z,24.10
2018-12-13T19:13:56.552Z,27.27
2018-12-13T19:16:25.639Z,24.63
2018-12-13T19:18:54.587Z,24.37
2018-12-13T19:21:23.648Z,23.83
2018-12-13T19:23:52.648Z,25.25
2018-12-13T19:26:21.636Z,21.90
2018-12-13T19:28:50.741Z,35.92
2018-12-13T19:31:19.700Z,22.03
2018-12-13T19:33:48.828Z,30.00
2018-12-13T19:36:17.869Z,27.98
2018-12-13T19:38:46.779Z,22.70
2018-12-13T19:41:16.085Z,28.55
2018-12-13T19:43:45.297Z,25.37
2018-12-13T19:46:14.335Z,32.75
2018-12-13T19:48:43.940Z,29.18
2018-12-13T19:51:13.130Z,28.45
2018-12-13T19:53:42.494Z,38.03
2018-12-13T19:56:11.640Z,33.55
2018-12-13T19:58:40.848Z,24.65
2018-12-13T20:01:09.804Z,29.12
2018-12-13T20:03:38.828Z,27.60
2018-12-13T20:06:08.958Z,23.20
2018-12-13T20:08:38.106Z,35.78
2018-12-13T20:11:07.280Z,28.62
2018-12-13T20:13:36.307Z,19.50
2018-12-13T20:16:05.380Z,28.95
2018-12-13T20:18:34.501Z,29.32
2018-12-13T20:21:03.884Z,22.95
2018-12-13T20:23:32.930Z,21.87
2018-12-13T20:26:02.099Z,22.45
2018-12-13T20:28:31.183Z,27.62
2018-12-13T20:31:00.285Z,28.12
2018-12-13T20:33:29.572Z,23.67
2018-12-13T20:35:58.810Z,27.22
2018-12-13T20:38:27.661Z,26.12
2018-12-13T20:41:00.929Z,25.08
2018-12-13T20:43:27.780Z,19.40
2018-12-13T20:45:56.917Z,24.70
2018-12-13T20:48:26.072Z,24.35
2018-12-13T20:50:55.127Z,25.52
2018-12-13T20:53:24.381Z,24.10
2018-12-13T20:55:53.397Z,26.40
2018-12-13T20:58:22.389Z,21.82
2018-12-13T21:00:53.261Z,31.40
2018-12-13T21:03:22.240Z,20.43
2018-12-13T21:05:51.274Z,24.10
2018-12-13T21:08:20.585Z,22.65
2018-12-13T21:10:49.648Z,25.45
2018-12-13T21:13:18.992Z,21.50
2018-12-13T21:15:48.064Z,24.32
2018-12-13T21:18:16.831Z,24.93
2018-12-13T21:20:46.096Z,23.40
2018-12-13T21:23:15.088Z,24.20
2018-12-13T21:25:44.285Z,25.20
2018-12-13T21:28:13.411Z,24.52
2018-12-13T21:30:42.478Z,26.33
2018-12-13T21:33:11.712Z,28.15
2018-12-13T21:35:40.676Z,24.15
2018-12-13T21:38:09.708Z,29.85
2018-12-13T21:40:38.772Z,25.45
2018-12-13T21:43:07.844Z,21.48
2018-12-13T21:45:36.999Z,19.23
2018-12-13T21:48:06.034Z,21.50
2018-12-13T21:50:35.163Z,25.65
2018-12-13T21:53:04.125Z,32.45
2018-12-13T21:55:33.139Z,23.00
2018-12-13T21:58:02.212Z,25.80
2018-12-13T22:00:31.342Z,23.55
2018-12-13T22:03:00.215Z,24.90
2018-12-13T22:05:29.221Z,22.65
2018-12-13T22:07:58.238Z,24.30
2018-12-13T22:10:27.508Z,21.37
2018-12-13T22:12:56.555Z,23.62
2018-12-13T22:15:25.813Z,30.97
2018-12-13T22:17:54.899Z,23.62
2018-12-13T22:20:23.975Z,24.05
2018-12-13T22:22:52.992Z,20.82
2018-12-13T22:25:22.316Z,25.12
2018-12-13T22:27:51.436Z,21.93
2018-12-13T22:30:20.672Z,27.62
2018-12-13T22:32:49.668Z,30.85
2018-12-13T22:35:18.698Z,18.27
2018-12-13T22:37:48.808Z,25.68
2018-12-13T22:40:18.061Z,23.32
2018-12-13T22:42:47.067Z,22.95
2018-12-13T22:45:16.104Z,27.40
2018-12-13T22:47:45.167Z,21.97
2018-12-13T22:50:14.497Z,28.07
2018-12-13T22:52:43.655Z,21.93
2018-12-13T22:55:12.580Z,20.97
2018-12-13T22:57:41.664Z,22.60
2018-12-13T23:00:12.876Z,30.25
2018-12-13T23:02:41.825Z,20.77
2018-12-13T23:05:10.694Z,28.05
2018-12-13T23:07:39.416Z,24.87
2018-12-13T23:10:08.552Z,24.12
2018-12-13T23:12:37.292Z,30.43
2018-12-13T23:15:06.484Z,18.00
2018-12-13T23:17:35.218Z,20.30
2018-12-13T23:20:04.331Z,26.33
2018-12-13T23:22:33.027Z,27.60
2018-12-13T23:25:01.761Z,23.10
2018-12-13T23:27:30.447Z,29.65
2018-12-13T23:29:59.265Z,23.55
2018-12-13T23:32:28.139Z,22.65
2018-12-13T23:34:56.858Z,20.92
2018-12-13T23:37:25.677Z,23.30
2018-12-13T23:39:54.416Z,29.80
2018-12-13T23:42:23.222Z,28.20
2018-12-13T23:44:51.961Z,24.72
2018-12-13T23:47:20.729Z,28.17
2018-12-13T23:49:49.463Z,24.52
2018-12-13T23:52:18.220Z,23.42
2018-12-13T23:54:47.012Z,24.65
2018-12-13T23:57:15.789Z,27.13
2018-12-13T23:59:44.599Z,24.82
